Time;durP1;ratioP1;P1;durP2;ratioP2;P2;SDS_P1;SDS_P2;PMS_P1;PMS_P2;Temp;Humidity;BMP_temperature;BMP_pressure;BME280_temperature;BME280_humidity;BME280_pressure;Samples;Min_cycle;Max_cycle;Signal;HPM_P1;HPM_P2
2023/07/12 00:01:40;;;;;;;3.90;2.55;;;;;;;;;;4865362;29;20071;-76
2023/07/12 00:04:06;;;;;;;5.95;2.80;;;;;;;;;;4879698;29;20048;-76
2023/07/12 00:06:36;;;;;;;6.53;2.65;;;;;;;;;;4879098;29;20095;-76
2023/07/12 00:09:02;;;;;;;5.45;2.88;;;;;;;;;;4877286;29;20063;-76
2023/07/12 00:11:28;;;;;;;6.35;2.95;;;;;;;;;;4877363;29;20116;-75
2023/07/12 00:13:55;;;;;;;3.45;2.80;;;;;;;;;;4878317;29;20044;-75
2023/07/12 00:16:35;;;;;;;4.00;3.00;;;;;;;;;;4878634;29;20068;-74
2023/07/12 00:19:01;;;;;;;5.07;3.17;;;;;;;;;;4872256;29;20128;-76
2023/07/12 00:21:28;;;;;;;6.82;2.90;;;;;;;;;;4879424;29;20096;-75
2023/07/12 00:23:55;;;;;;;4.97;2.83;;;;;;;;;;4878946;29;20056;-76
2023/07/12 00:26:24;;;;;;;5.55;2.63;;;;;;;;;;4879633;29;20052;-75
2023/07/12 00:28:50;;;;;;;4.50;3.00;;;;;;;;;;4877378;29;20082;-77
2023/07/12 00:31:16;;;;;;;4.72;2.90;;;;;;;;;;4877740;29;20120;-77
2023/07/12 00:33:42;;;;;;;8.50;3.00;;;;;;;;;;4881530;29;20796;-74
2023/07/12 00:36:13;;;;;;;5.45;3.15;;;;;;;;;;4878988;29;20394;-75
2023/07/12 00:38:40;;;;;;;6.72;3.28;;;;;;;;;;4878993;29;20056;-75
2023/07/12 00:41:25;;;;;;;5.13;2.83;;;;;;;;;;4879442;29;20056;-75
2023/07/12 00:44:04;;;;;;;8.73;3.47;;;;;;;;;;4878890;29;20084;-75
2023/07/12 00:46:32;;;;;;;5.07;3.10;;;;;;;;;;4870085;29;20127;-76
2023/07/12 00:48:58;;;;;;;5.38;3.30;;;;;;;;;;4878221;29;20115;-76
2023/07/12 00:51:27;;;;;;;6.28;3.13;;;;;;;;;;4879190;29;20500;-75
2023/07/12 00:53:57;;;;;;;5.32;3.28;;;;;;;;;;4869687;29;20049;-75
2023/07/12 00:56:23;;;;;;;5.72;3.17;;;;;;;;;;4879168;29;20056;-75
2023/07/12 00:58:52;;;;;;;5.50;3.75;;;;;;;;;;4878093;29;20390;-76
2023/07/12 01:01:18;;;;;;;6.80;4.63;;;;;;;;;;4875624;29;20059;-76
2023/07/12 01:03:45;;;;;;;5.80;4.18;;;;;;;;;;4878754;29;20119;-75
2023/07/12 01:06:13;;;;;;;7.25;4.30;;;;;;;;;;4879858;29;21332;-75
2023/07/12 01:08:41;;;;;;;7.10;5.10;;;;;;;;;;4880519;29;20164;-75
2023/07/12 01:11:08;;;;;;;7.70;4.88;;;;;;;;;;4860673;29;20044;-75
2023/07/12 01:13:34;;;;;;;6.53;4.93;;;;;;;;;;4861575;29;20044;-75
2023/07/12 01:16:01;;;;;;;15.07;5.70;;;;;;;;;;4877562;29;20040;-75
2023/07/12 01:18:28;;;;;;;7.75;5.07;;;;;;;;;;4862426;29;20112;-75
2023/07/12 01:21:04;;;;;;;5.80;4.82;;;;;;;;;;4882784;29;20048;-75
2023/07/12 01:23:30;;;;;;;7.65;5.20;;;;;;;;;;4878530;29;20091;-75
2023/07/12 01:26:14;;;;;;;6.97;5.03;;;;;;;;;;4879000;29;20055;-75
2023/07/12 01:28:41;;;;;;;10.32;5.22;;;;;;;;;;4879008;29;20048;-75
2023/07/12 01:31:07;;;;;;;7.57;5.40;;;;;;;;;;4860343;29;20040;-75
2023/07/12 01:33:33;;;;;;;9.30;5.05;;;;;;;;;;4878478;29;20072;-75
2023/07/12 01:35:59;;;;;;;7.55;5.05;;;;;;;;;;4876732;29;20044;-75
2023/07/12 01:38:26;;;;;;;8.40;5.20;;;;;;;;;;4885047;29;20052;-75
2023/07/12 01:40:52;;;;;;;12.40;5.30;;;;;;;;;;4880657;29;20059;-75
2023/07/12 01:43:18;;;;;;;8.68;4.72;;;;;;;;;;4882621;29;20176;-75
2023/07/12 01:45:44;;;;;;;11.75;5.38;;;;;;;;;;4879991;29;20080;-75
2023/07/12 01:48:10;;;;;;;16.83;4.68;;;;;;;;;;4885237;29;20729;-76
2023/07/12 01:50:36;;;;;;;13.60;5.45;;;;;;;;;;4883314;29;20112;-76
2023/07/12 01:53:03;;;;;;;13.38;5.38;;;;;;;;;;4871896;29;20100;-76
2023/07/12 01:55:29;;;;;;;8.68;5.70;;;;;;;;;;4881197;29;20044;-75
2023/07/12 01:57:55;;;;;;;18.98;5.97;;;;;;;;;;4880837;29;20044;-76
2023/07/12 02:00:21;;;;;;;15.82;5.25;;;;;;;;;;4880510;29;20036;-75
2023/07/12 02:02:47;;;;;;;11.50;5.38;;;;;;;;;;4859048;29;20044;-76
2023/07/12 02:05:13;;;;;;;11.90;5.95;;;;;;;;;;4878097;29;20044;-76
2023/07/12 02:07:40;;;;;;;10.80;4.70;;;;;;;;;;4878772;29;20516;-75
2023/07/12 02:10:14;;;;;;;15.52;5.30;;;;;;;;;;4882156;29;20434;-76
2023/07/12 02:12:41;;;;;;;13.50;5.55;;;;;;;;;;4882132;29;20912;-73
2023/07/12 02:15:07;;;;;;;11.63;4.78;;;;;;;;;;4881478;29;20043;-75
2023/07/12 02:17:33;;;;;;;9.00;4.65;;;;;;;;;;4879179;29;20055;-75
2023/07/12 02:20:00;;;;;;;9.45;5.15;;;;;;;;;;4864447;29;21182;-75
2023/07/12 02:22:29;;;;;;;8.65;4.38;;;;;;;;;;4881906;29;22044;-75
2023/07/12 02:24:55;;;;;;;8.18;4.60;;;;;;;;;;4883048;29;20095;-74
2023/07/12 02:27:21;;;;;;;14.55;5.30;;;;;;;;;;4870591;29;20048;-75
2023/07/12 02:29:47;;;;;;;13.95;5.22;;;;;;;;;;4864973;29;20047;-75
2023/07/12 02:32:13;;;;;;;15.75;4.47;;;;;;;;;;4880956;29;20083;-75
2023/07/12 02:34:39;;;;;;;10.80;4.47;;;;;;;;;;4868193;29;22300;-75
2023/07/12 02:37:05;;;;;;;15.10;4.53;;;;;;;;;;4897020;29;20159;-75
2023/07/12 02:39:31;;;;;;;12.40;4.22;;;;;;;;;;4872551;29;20147;-75
2023/07/12 02:41:57;;;;;;;11.93;4.30;;;;;;;;;;4865027;29;20062;-75
2023/07/12 02:44:23;;;;;;;11.52;4.15;;;;;;;;;;4867356;29;20063;-75
2023/07/12 02:46:49;;;;;;;11.43;5.10;;;;;;;;;;4884274;29;20048;-74
2023/07/12 02:49:16;;;;;;;12.15;4.13;;;;;;;;;;4882303;29;20051;-74
2023/07/12 02:51:43;;;;;;;9.50;4.28;;;;;;;;;;4865037;29;20098;-74
2023/07/12 02:54:12;;;;;;;10.73;4.55;;;;;;;;;;4880802;29;20042;-75
2023/07/12 02:56:38;;;;;;;27.13;6.63;;;;;;;;;;4881189;29;20158;-75
2023/07/12 02:59:04;;;;;;;15.85;5.57;;;;;;;;;;4886362;29;20076;-75
2023/07/12 03:01:30;;;;;;;27.23;4.63;;;;;;;;;;4872639;29;20056;-75
2023/07/12 03:03:56;;;;;;;15.73;4.72;;;;;;;;;;4879074;29;20063;-74
2023/07/12 03:06:22;;;;;;;14.82;4.88;;;;;;;;;;4882488;29;20059;-75
2023/07/12 03:08:48;;;;;;;13.38;5.00;;;;;;;;;;4882782;29;20059;-75
2023/07/12 03:11:14;;;;;;;13.02;5.38;;;;;;;;;;4887165;29;20045;-75
2023/07/12 03:13:40;;;;;;;18.45;6.00;;;;;;;;;;4891259;29;20044;-75
2023/07/12 03:16:07;;;;;;;17.15;5.97;;;;;;;;;;4892411;29;20063;-74
2023/07/12 03:18:33;;;;;;;18.27;6.00;;;;;;;;;;4890301;29;20803;-74
2023/07/12 03:21:00;;;;;;;14.75;6.20;;;;;;;;;;4891698;29;20045;-74
2023/07/12 03:23:26;;;;;;;14.00;5.90;;;;;;;;;;4888421;29;20079;-75
2023/07/12 03:25:52;;;;;;;14.32;5.57;;;;;;;;;;4894000;29;20052;-74
2023/07/12 03:28:18;;;;;;;12.35;5.82;;;;;;;;;;4894392;29;20055;-75
2023/07/12 03:30:56;;;;;;;18.65;6.35;;;;;;;;;;4894562;29;20080;-75
2023/07/12 03:33:22;;;;;;;17.75;5.82;;;;;;;;;;4896199;29;20044;-75
2023/07/12 03:35:51;;;;;;;15.27;5.65;;;;;;;;;;4891206;29;20043;-75
2023/07/12 03:38:17;;;;;;;16.88;5.65;;;;;;;;;;4884239;29;20048;-75
2023/07/12 03:40:47;;;;;;;17.27;6.13;;;;;;;;;;4905637;29;20092;-75
2023/07/12 03:43:13;;;;;;;15.15;5.95;;;;;;;;;;4903163;29;20056;-75
2023/07/12 03:45:39;;;;;;;13.90;5.75;;;;;;;;;;4902874;29;20048;-75
2023/07/12 03:48:06;;;;;;;18.02;6.32;;;;;;;;;;4875368;29;20138;-74
2023/07/12 03:50:32;;;;;;;16.52;5.68;;;;;;;;;;4872154;29;20052;-75
2023/07/12 03:52:58;;;;;;;17.05;5.38;;;;;;;;;;4874768;29;20073;-75
2023/07/12 03:55:24;;;;;;;14.45;5.20;;;;;;;;;;4885392;29;21621;-75
2023/07/12 03:57:50;;;;;;;17.60;5.68;;;;;;;;;;4879500;29;20079;-75
2023/07/12 04:00:16;;;;;;;12.07;4.88;;;;;;;;;;4876838;29;20040;-74
2023/07/12 04:02:43;;;;;;;13.18;4.95;;;;;;;;;;4869774;29;20048;-74
2023/07/12 04:05:09;;;;;;;15.43;5.72;;;;;;;;;;4861802;29;20041;-75
2023/07/12 04:07:35;;;;;;;16.42;5.78;;;;;;;;;;4881621;29;20053;-75
2023/07/12 04:10:01;;;;;;;15.15;5.60;;;;;;;;;;4882582;29;20208;-75
2023/07/12 04:12:27;;;;;;;18.98;6.00;;;;;;;;;;4882931;29;20051;-74
2023/07/12 04:14:54;;;;;;;20.67;6.82;;;;;;;;;;4878905;29;20035;-75
2023/07/12 04:17:21;;;;;;;16.02;5.75;;;;;;;;;;4880577;29;20052;-75
2023/07/12 04:19:47;;;;;;;21.00;5.75;;;;;;;;;;4870260;29;20044;-75
2023/07/12 04:22:14;;;;;;;19.60;6.22;;;;;;;;;;4887037;29;20119;-74
2023/07/12 04:24:40;;;;;;;27.25;5.95;;;;;;;;;;4883480;29;20083;-75
2023/07/12 04:27:06;;;;;;;21.55;6.07;;;;;;;;;;4869648;29;20112;-75
2023/07/12 04:29:33;;;;;;;20.55;6.15;;;;;;;;;;4881934;29;20044;-74
2023/07/12 04:31:59;;;;;;;19.50;7.00;;;;;;;;;;4882849;29;20084;-74
2023/07/12 04:34:25;;;;;;;19.05;5.65;;;;;;;;;;4881882;29;20059;-74
2023/07/12 04:36:53;;;;;;;16.17;7.20;;;;;;;;;;4885631;29;20045;-74
2023/07/12 04:39:20;;;;;;;19.45;6.20;;;;;;;;;;4867392;29;20065;-74
2023/07/12 04:41:46;;;;;;;13.85;5.60;;;;;;;;;;4882522;29;20052;-74
2023/07/12 04:44:12;;;;;;;20.25;5.93;;;;;;;;;;4897289;29;20092;-75
2023/07/12 04:46:38;;;;;;;15.18;5.35;;;;;;;;;;4882431;29;20054;-75
2023/07/12 04:49:04;;;;;;;17.50;5.63;;;;;;;;;;4881506;29;20127;-75
2023/07/12 04:51:31;;;;;;;22.15;5.88;;;;;;;;;;4880423;29;20838;-74
2023/07/12 04:53:57;;;;;;;14.52;5.40;;;;;;;;;;4878107;29;20048;-75
2023/07/12 04:56:23;;;;;;;11.90;5.35;;;;;;;;;;4864233;29;20724;-75
2023/07/12 04:58:49;;;;;;;16.27;5.95;;;;;;;;;;4882353;29;20050;-75
2023/07/12 05:01:15;;;;;;;16.50;5.68;;;;;;;;;;4890612;29;20688;-76
2023/07/12 05:03:41;;;;;;;17.85;6.20;;;;;;;;;;4892918;29;20136;-75
2023/07/12 05:06:07;;;;;;;25.65;7.47;;;;;;;;;;4885055;29;20127;-75
2023/07/12 05:08:33;;;;;;;22.05;6.00;;;;;;;;;;4885692;29;20056;-76
2023/07/12 05:11:00;;;;;;;10.80;5.07;;;;;;;;;;4887027;29;20151;-76
2023/07/12 05:13:26;;;;;;;25.45;6.75;;;;;;;;;;4883776;29;20454;-75
2023/07/12 05:15:53;;;;;;;19.67;5.90;;;;;;;;;;4885472;29;20465;-75
2023/07/12 05:18:19;;;;;;;19.23;6.70;;;;;;;;;;4884622;29;20044;-76
2023/07/12 05:20:45;;;;;;;16.45;6.32;;;;;;;;;;4866695;29;20446;-74
2023/07/12 05:23:12;;;;;;;19.70;5.95;;;;;;;;;;4885447;29;20044;-74
2023/07/12 05:25:38;;;;;;;13.82;5.28;;;;;;;;;;4886636;29;20048;-75
2023/07/12 05:28:04;;;;;;;15.88;5.95;;;;;;;;;;4883986;29;20062;-73
2023/07/12 05:30:31;;;;;;;15.55;5.35;;;;;;;;;;4884127;29;20174;-73
2023/07/12 05:32:57;;;;;;;18.27;6.68;;;;;;;;;;4899960;29;20190;-73
2023/07/12 05:35:23;;;;;;;15.35;6.15;;;;;;;;;;4883083;29;20052;-72
2023/07/12 05:37:49;;;;;;;16.48;6.63;;;;;;;;;;4882121;29;20408;-73
2023/07/12 05:40:16;;;;;;;17.52;6.28;;;;;;;;;;4884734;29;20102;-73
2023/07/12 05:42:42;;;;;;;18.75;6.32;;;;;;;;;;4884130;29;20127;-73
2023/07/12 05:45:10;;;;;;;23.90;7.03;;;;;;;;;;4890000;29;20060;-73
2023/07/12 05:47:37;;;;;;;22.45;7.47;;;;;;;;;;4871824;29;20076;-73
2023/07/12 05:50:07;;;;;;;16.05;5.82;;;;;;;;;;4879741;29;20072;-73
2023/07/12 05:52:33;;;;;;;15.15;5.68;;;;;;;;;;4889384;29;20607;-75
2023/07/12 05:54:59;;;;;;;22.30;8.00;;;;;;;;;;4889179;29;20632;-76
2023/07/12 05:57:26;;;;;;;21.38;6.05;;;;;;;;;;4889698;29;20036;-75
2023/07/12 05:59:52;;;;;;;18.33;5.82;;;;;;;;;;4888673;29;20115;-75
2023/07/12 06:02:18;;;;;;;16.27;5.88;;;;;;;;;;4886784;29;20079;-75
2023/07/12 06:04:45;;;;;;;19.35;6.28;;;;;;;;;;4886222;29;20113;-75
2023/07/12 06:07:11;;;;;;;17.98;6.30;;;;;;;;;;4888383;29;20048;-76
2023/07/12 06:09:37;;;;;;;19.02;6.40;;;;;;;;;;4887916;29;20068;-73
2023/07/12 06:12:03;;;;;;;21.08;6.72;;;;;;;;;;4887278;29;20080;-73
2023/07/12 06:14:30;;;;;;;28.70;8.13;;;;;;;;;;4887571;29;20135;-73
2023/07/12 06:16:56;;;;;;;20.75;6.57;;;;;;;;;;4872317;29;20220;-75
2023/07/12 06:19:22;;;;;;;19.00;6.03;;;;;;;;;;4887514;29;20055;-74
2023/07/12 06:21:48;;;;;;;18.80;6.00;;;;;;;;;;4870769;29;20103;-75
2023/07/12 06:24:14;;;;;;;22.15;6.15;;;;;;;;;;4889791;29;20037;-76
2023/07/12 06:26:40;;;;;;;15.35;5.50;;;;;;;;;;4870347;29;20040;-75
2023/07/12 06:29:06;;;;;;;16.48;5.70;;;;;;;;;;4903984;29;20087;-76
2023/07/12 06:31:32;;;;;;;20.92;6.70;;;;;;;;;;4903825;29;20056;-75
2023/07/12 06:34:00;;;;;;;18.17;5.82;;;;;;;;;;4889897;29;20221;-74
2023/07/12 06:36:26;;;;;;;18.50;5.97;;;;;;;;;;4874147;29;21063;-74
2023/07/12 06:38:55;;;;;;;15.68;5.38;;;;;;;;;;4873890;29;20198;-75
2023/07/12 06:41:22;;;;;;;17.38;6.32;;;;;;;;;;4895372;29;20048;-75
2023/07/12 06:43:48;;;;;;;22.55;8.23;;;;;;;;;;4887766;29;20053;-74
2023/07/12 06:46:14;;;;;;;19.30;7.05;;;;;;;;;;4888818;29;20115;-75
2023/07/12 06:48:40;;;;;;;18.60;6.03;;;;;;;;;;4886822;29;20048;-75
2023/07/12 06:51:06;;;;;;;16.63;6.85;;;;;;;;;;4895379;29;20044;-75
2023/07/12 06:53:32;;;;;;;19.73;6.18;;;;;;;;;;4886012;29;20051;-75
2023/07/12 06:55:59;;;;;;;16.83;5.68;;;;;;;;;;4871590;29;20079;-75
2023/07/12 06:58:25;;;;;;;18.17;5.30;;;;;;;;;;4886324;29;20093;-75
2023/07/12 07:00:51;;;;;;;20.70;5.90;;;;;;;;;;4885722;29;20725;-75
2023/07/12 07:03:18;;;;;;;16.00;5.15;;;;;;;;;;4886935;29;20048;-75
2023/07/12 07:05:45;;;;;;;16.25;5.80;;;;;;;;;;4888847;29;20045;-75
2023/07/12 07:08:12;;;;;;;19.83;6.20;;;;;;;;;;4887062;29;20063;-75
2023/07/12 07:10:38;;;;;;;16.33;6.60;;;;;;;;;;4887522;29;20135;-74
2023/07/12 07:13:04;;;;;;;14.95;6.40;;;;;;;;;;4892853;29;20433;-75
2023/07/12 07:15:31;;;;;;;16.30;6.03;;;;;;;;;;4875225;29;20069;-74
2023/07/12 07:17:57;;;;;;;14.68;5.03;;;;;;;;;;4870448;29;20044;-75
2023/07/12 07:20:23;;;;;;;19.13;6.25;;;;;;;;;;4887712;29;20048;-74
2023/07/12 07:22:50;;;;;;;16.90;5.72;;;;;;;;;;4890204;29;20534;-74
2023/07/12 07:25:16;;;;;;;14.68;4.38;;;;;;;;;;4902453;29;20079;-74
2023/07/12 07:27:42;;;;;;;17.45;5.57;;;;;;;;;;4887926;29;20434;-74
2023/07/12 07:30:09;;;;;;;14.48;5.60;;;;;;;;;;4886669;29;20164;-74
2023/07/12 07:32:35;;;;;;;17.58;4.45;;;;;;;;;;4888474;29;20504;-74
2023/07/12 07:35:01;;;;;;;17.80;5.20;;;;;;;;;;4886255;29;22086;-74
2023/07/12 07:37:27;;;;;;;16.05;5.10;;;;;;;;;;4887547;29;20049;-75
2023/07/12 07:39:53;;;;;;;12.57;4.32;;;;;;;;;;4894200;29;20897;-75
2023/07/12 07:42:19;;;;;;;12.63;4.65;;;;;;;;;;4890233;29;20391;-75
2023/07/12 07:44:45;;;;;;;14.82;4.53;;;;;;;;;;4889077;29;20040;-75
2023/07/12 07:47:11;;;;;;;15.02;4.22;;;;;;;;;;4893842;29;20052;-76
2023/07/12 07:49:38;;;;;;;13.25;4.00;;;;;;;;;;4890086;29;20057;-75
2023/07/12 07:52:04;;;;;;;12.77;4.72;;;;;;;;;;4888868;29;20494;-76
2023/07/12 07:54:31;;;;;;;11.63;4.30;;;;;;;;;;4887980;29;20139;-75
2023/07/12 07:56:57;;;;;;;15.07;3.75;;;;;;;;;;4892461;29;20501;-75
2023/07/12 07:59:23;;;;;;;11.95;3.53;;;;;;;;;;4899900;29;20092;-74
2023/07/12 08:01:49;;;;;;;17.80;4.57;;;;;;;;;;4902576;29;20052;-75
2023/07/12 08:04:15;;;;;;;14.77;4.15;;;;;;;;;;4897132;29;20079;-75
2023/07/12 08:06:41;;;;;;;20.15;4.05;;;;;;;;;;4861301;29;20044;-73
2023/07/12 08:09:07;;;;;;;15.73;3.63;;;;;;;;;;4878007;29;20138;-76
2023/07/12 08:11:33;;;;;;;16.73;3.33;;;;;;;;;;4900577;29;20047;-76
2023/07/12 08:14:00;;;;;;;10.77;3.47;;;;;;;;;;4897672;29;20036;-75
2023/07/12 08:16:27;;;;;;;17.25;3.72;;;;;;;;;;4894841;29;20062;-75
2023/07/12 08:18:53;;;;;;;10.32;3.47;;;;;;;;;;4896351;29;20040;-75
2023/07/12 08:21:20;;;;;;;14.48;3.60;;;;;;;;;;4904925;29;20043;-75
2023/07/12 08:23:46;;;;;;;24.60;5.55;;;;;;;;;;4879715;29;20052;-79
2023/07/12 08:26:12;;;;;;;26.58;6.03;;;;;;;;;;4896603;29;20051;-79
2023/07/12 08:28:38;;;;;;;16.40;4.68;;;;;;;;;;4897131;29;20070;-80
2023/07/12 08:31:04;;;;;;;19.40;5.50;;;;;;;;;;4898948;29;20047;-79
2023/07/12 08:33:30;;;;;;;23.65;6.43;;;;;;;;;;4897097;29;20048;-79
2023/07/12 08:35:56;;;;;;;18.38;7.10;;;;;;;;;;4897358;29;20552;-80
2023/07/12 08:38:22;;;;;;;26.35;8.32;;;;;;;;;;4900388;29;20083;-80
2023/07/12 08:40:49;;;;;;;24.42;7.65;;;;;;;;;;4890896;29;20107;-80
2023/07/12 08:43:20;;;;;;;18.75;7.53;;;;;;;;;;4888157;29;20075;-79
2023/07/12 08:45:48;;;;;;;26.98;7.47;;;;;;;;;;4887414;29;20159;-79
2023/07/12 08:48:25;;;;;;;22.75;7.13;;;;;;;;;;4893156;29;20079;-78
2023/07/12 08:50:51;;;;;;;16.38;7.57;;;;;;;;;;4893039;29;20056;-78
2023/07/12 08:53:20;;;;;;;23.35;8.32;;;;;;;;;;4885865;29;20108;-77
2023/07/12 08:55:46;;;;;;;21.25;7.38;;;;;;;;;;4887189;29;20044;-78
2023/07/12 08:58:26;;;;;;;20.80;6.00;;;;;;;;;;4885862;29;20131;-78
2023/07/12 09:00:57;;;;;;;14.30;4.88;;;;;;;;;;4870292;29;20051;-77
2023/07/12 09:03:23;;;;;;;11.90;3.75;;;;;;;;;;4869267;29;21457;-77
2023/07/12 09:05:49;;;;;;;12.30;4.22;;;;;;;;;;4883640;29;20153;-77
2023/07/12 09:08:20;;;;;;;11.50;3.92;;;;;;;;;;4860063;29;20052;-78
2023/07/12 09:10:46;;;;;;;14.35;3.97;;;;;;;;;;4877111;29;20430;-77
2023/07/12 09:13:14;;;;;;;13.13;3.72;;;;;;;;;;4887982;29;20497;-78
2023/07/12 09:15:43;;;;;;;9.38;3.15;;;;;;;;;;4885035;29;20066;-76
2023/07/12 09:18:20;;;;;;;9.77;3.80;;;;;;;;;;4885705;29;20056;-77
2023/07/12 09:20:50;;;;;;;9.43;3.08;;;;;;;;;;4882997;29;20048;-77
2023/07/12 09:23:16;;;;;;;9.88;3.65;;;;;;;;;;4887086;29;20055;-77
2023/07/12 09:25:47;;;;;;;11.07;3.33;;;;;;;;;;4890061;29;20055;-77
2023/07/12 09:28:14;;;;;;;10.95;3.75;;;;;;;;;;4890512;29;20052;-76
2023/07/12 09:30:41;;;;;;;12.10;3.30;;;;;;;;;;4889316;29;20044;-76
2023/07/12 09:33:07;;;;;;;11.60;3.13;;;;;;;;;;4891207;29;20059;-75
2023/07/12 09:35:38;;;;;;;8.63;3.20;;;;;;;;;;4897363;29;20048;-74
2023/07/12 09:38:09;;;;;;;12.65;3.05;;;;;;;;;;4885306;29;20107;-76
2023/07/12 09:40:40;;;;;;;10.55;3.40;;;;;;;;;;4886298;29;20063;-75
2023/07/12 09:43:14;;;;;;;8.65;3.00;;;;;;;;;;4887132;29;20043;-75
2023/07/12 09:45:42;;;;;;;9.60;3.05;;;;;;;;;;4886312;29;20041;-75
2023/07/12 09:48:27;;;;;;;9.50;2.88;;;;;;;;;;4887123;29;20056;-75
2023/07/12 09:51:08;;;;;;;8.57;3.25;;;;;;;;;;4887935;29;20531;-75
2023/07/12 09:53:37;;;;;;;12.23;3.25;;;;;;;;;;4893687;29;20049;-75
2023/07/12 09:56:13;;;;;;;9.15;2.85;;;;;;;;;;4886463;29;20052;-75
2023/07/12 09:58:46;;;;;;;12.00;2.88;;;;;;;;;;4886348;29;20051;-75
2023/07/12 10:01:24;;;;;;;13.15;3.05;;;;;;;;;;4888602;29;20048;-75
2023/07/12 10:03:55;;;;;;;7.07;2.47;;;;;;;;;;4887520;29;20056;-75
2023/07/12 10:06:49;;;;;;;6.68;2.45;;;;;;;;;;4894090;29;20062;-75
2023/07/12 10:09:35;;;;;;;9.45;2.33;;;;;;;;;;4877683;29;20065;-75
2023/07/12 10:12:05;;;;;;;10.70;2.83;;;;;;;;;;4885394;29;20550;-75
2023/07/12 10:14:37;;;;;;;8.27;3.28;;;;;;;;;;4900464;29;20132;-74
2023/07/12 10:17:04;;;;;;;8.93;2.45;;;;;;;;;;4883673;29;20151;-74
2023/07/12 10:19:38;;;;;;;7.72;2.50;;;;;;;;;;4869339;29;20047;-75
2023/07/12 10:22:06;;;;;;;7.85;2.45;;;;;;;;;;4884864;29;20087;-75
2023/07/12 10:24:38;;;;;;;8.90;2.20;;;;;;;;;;4885195;29;20075;-74
2023/07/12 10:27:11;;;;;;;8.60;2.70;;;;;;;;;;4867738;29;20044;-75
2023/07/12 10:29:44;;;;;;;6.60;2.15;;;;;;;;;;4900492;29;20047;-76
2023/07/12 10:32:17;;;;;;;6.07;2.10;;;;;;;;;;4888334;29;20076;-73
2023/07/12 10:34:46;;;;;;;5.47;2.05;;;;;;;;;;4889401;29;20044;-72
2023/07/12 10:37:15;;;;;;;4.88;1.92;;;;;;;;;;4887273;29;20095;-72
2023/07/12 10:39:41;;;;;;;8.95;1.85;;;;;;;;;;4894981;29;20045;-72
2023/07/12 10:42:11;;;;;;;3.15;1.70;;;;;;;;;;4888169;29;20045;-72
2023/07/12 10:44:44;;;;;;;5.10;1.60;;;;;;;;;;4887058;29;21080;-73
2023/07/12 10:47:15;;;;;;;5.85;2.17;;;;;;;;;;4887503;29;20051;-73
2023/07/12 10:49:41;;;;;;;4.47;1.67;;;;;;;;;;4885936;29;20142;-72
2023/07/12 10:52:10;;;;;;;5.93;1.80;;;;;;;;;;4895727;29;20092;-73
2023/07/12 10:54:36;;;;;;;10.73;1.88;;;;;;;;;;4889173;29;20092;-72
2023/07/12 10:57:05;;;;;;;4.47;1.65;;;;;;;;;;4886788;29;20059;-73
2023/07/12 10:59:31;;;;;;;4.05;1.90;;;;;;;;;;4890590;29;20052;-72
2023/07/12 11:02:03;;;;;;;6.88;1.65;;;;;;;;;;4890658;29;20044;-72
2023/07/12 11:04:29;;;;;;;4.03;1.30;;;;;;;;;;4889140;29;20048;-73
2023/07/12 11:07:22;;;;;;;4.13;1.60;;;;;;;;;;4886883;29;20040;-73
2023/07/12 11:09:48;;;;;;;5.88;1.65;;;;;;;;;;4892695;29;20510;-74
2023/07/12 11:12:16;;;;;;;6.40;2.25;;;;;;;;;;4893499;29;20111;-72
2023/07/12 11:14:42;;;;;;;6.32;1.85;;;;;;;;;;4892259;29;20072;-72
2023/07/12 11:17:11;;;;;;;3.72;1.45;;;;;;;;;;4873125;29;20048;-73
2023/07/12 11:19:37;;;;;;;3.80;1.40;;;;;;;;;;4889127;29;20103;-73
2023/07/12 11:22:23;;;;;;;6.63;1.02;;;;;;;;;;4887626;29;20052;-72
2023/07/12 11:25:00;;;;;;;2.28;1.10;;;;;;;;;;4889864;29;20055;-73
2023/07/12 11:27:40;;;;;;;3.38;1.10;;;;;;;;;;4888621;29;20040;-73
2023/07/12 11:30:29;;;;;;;3.33;1.17;;;;;;;;;;4890347;29;20044;-72
2023/07/12 11:33:18;;;;;;;5.78;1.30;;;;;;;;;;4878502;29;20629;-73
2023/07/12 11:35:50;;;;;;;4.18;1.08;;;;;;;;;;4890668;29;20062;-73
2023/07/12 11:38:24;;;;;;;2.35;0.82;;;;;;;;;;4888761;29;21699;-73
2023/07/12 11:40:52;;;;;;;7.72;1.40;;;;;;;;;;4879746;29;20064;-73
2023/07/12 11:43:21;;;;;;;3.22;1.20;;;;;;;;;;4889966;29;20063;-74
2023/07/12 11:45:47;;;;;;;5.80;1.63;;;;;;;;;;4894978;29;20060;-73
2023/07/12 11:48:14;;;;;;;3.17;0.90;;;;;;;;;;4890637;29;20410;-72
2023/07/12 11:50:40;;;;;;;3.47;0.90;;;;;;;;;;4890531;29;20051;-73
2023/07/12 11:53:06;;;;;;;6.22;1.05;;;;;;;;;;4889863;29;20470;-73
2023/07/12 11:55:33;;;;;;;2.15;1.25;;;;;;;;;;4905498;29;20066;-73
2023/07/12 11:57:59;;;;;;;2.25;0.93;;;;;;;;;;4889619;29;20044;-72
2023/07/12 12:00:28;;;;;;;2.47;1.13;;;;;;;;;;4886937;29;20480;-72
2023/07/12 12:03:00;;;;;;;2.00;0.95;;;;;;;;;;4870775;29;20076;-72
2023/07/12 12:05:32;;;;;;;5.20;1.52;;;;;;;;;;4885934;29;20053;-72
2023/07/12 12:08:02;;;;;;;2.75;0.98;;;;;;;;;;4888137;29;20668;-77
2023/07/12 12:10:38;;;;;;;7.63;1.30;;;;;;;;;;4872748;29;20126;-79
2023/07/12 12:13:26;;;;;;;6.43;1.15;;;;;;;;;;4870905;29;20644;-80
2023/07/12 12:15:58;;;;;;;2.67;0.82;;;;;;;;;;4872203;29;20043;-79
2023/07/12 12:18:25;;;;;;;3.92;1.30;;;;;;;;;;4886312;29;20079;-79
2023/07/12 12:20:58;;;;;;;1.85;0.80;;;;;;;;;;4874169;29;20040;-80
2023/07/12 12:23:25;;;;;;;;;;;;;;;;;;4867292;29;20508;-80
2023/07/12 12:25:52;;;;;;;6.78;1.02;;;;;;;;;;4885071;29;19927;-81
2023/07/12 12:28:24;;;;;;;2.97;0.93;;;;;;;;;;4884998;29;20040;-81
2023/07/12 12:31:06;;;;;;;3.80;0.90;;;;;;;;;;4877046;29;20044;-79
2023/07/12 12:33:45;;;;;;;5.90;0.90;;;;;;;;;;4889772;29;20072;-79
2023/07/12 12:36:19;;;;;;;2.97;0.82;;;;;;;;;;4855282;29;20076;-80
2023/07/12 12:38:55;;;;;;;6.22;0.73;;;;;;;;;;4868768;29;20075;-79
2023/07/12 12:41:21;;;;;;;4.05;0.98;;;;;;;;;;4902174;29;20051;-80
2023/07/12 12:44:20;;;;;;;4.30;0.85;;;;;;;;;;4869351;29;20180;-79
2023/07/12 12:46:51;;;;;;;3.60;1.02;;;;;;;;;;4844447;29;20056;-80
2023/07/12 12:49:18;;;;;;;5.47;1.10;;;;;;;;;;4885393;29;20059;-80
2023/07/12 12:51:44;;;;;;;3.67;0.98;;;;;;;;;;4885052;29;20075;-79
2023/07/12 12:54:11;;;;;;;3.88;1.20;;;;;;;;;;4902769;29;20055;-79
2023/07/12 12:56:37;;;;;;;3.33;1.30;;;;;;;;;;4889304;29;20056;-79
2023/07/12 12:59:03;;;;;;;2.10;0.80;;;;;;;;;;4876184;29;20055;-79
2023/07/12 13:01:29;;;;;;;3.80;1.10;;;;;;;;;;4875460;29;20044;-80
2023/07/12 13:03:56;;;;;;;7.60;1.58;;;;;;;;;;4881718;29;20048;-80
2023/07/12 13:06:24;;;;;;;2.13;1.00;;;;;;;;;;4878331;29;20060;-81
2023/07/12 13:08:50;;;;;;;2.92;0.95;;;;;;;;;;4890240;29;20062;-80
2023/07/12 13:11:17;;;;;;;3.47;1.00;;;;;;;;;;4891830;29;20140;-80
2023/07/12 13:13:43;;;;;;;4.10;0.80;;;;;;;;;;4889684;29;20059;-80
2023/07/12 13:16:16;;;;;;;2.70;0.90;;;;;;;;;;4872329;29;20084;-80
2023/07/12 13:18:42;;;;;;;4.28;1.10;;;;;;;;;;4885791;29;20130;-79
2023/07/12 13:21:16;;;;;;;6.60;1.48;;;;;;;;;;4888068;29;20056;-80
2023/07/12 13:23:42;;;;;;;4.90;0.93;;;;;;;;;;4857931;29;20047;-80
2023/07/12 13:26:13;;;;;;;2.92;1.20;;;;;;;;;;4885293;29;20060;-80
2023/07/12 13:28:39;;;;;;;1.83;1.00;;;;;;;;;;4886311;29;20048;-80
2023/07/12 13:31:06;;;;;;;4.72;0.85;;;;;;;;;;4886711;29;20044;-80
2023/07/12 13:33:32;;;;;;;3.80;1.00;;;;;;;;;;4884323;29;20044;-79
2023/07/12 13:35:58;;;;;;;4.68;1.42;;;;;;;;;;4858991;29;22096;-80
2023/07/12 13:38:25;;;;;;;4.80;1.27;;;;;;;;;;4887461;29;20048;-80
2023/07/12 13:40:51;;;;;;;6.82;0.95;;;;;;;;;;4878256;29;20060;-80
2023/07/12 13:43:18;;;;;;;7.45;1.45;;;;;;;;;;4872180;29;20516;-80
2023/07/12 13:45:44;;;;;;;5.80;1.25;;;;;;;;;;4885862;29;20052;-80
2023/07/12 13:48:11;;;;;;;4.50;1.30;;;;;;;;;;4870204;29;20036;-80
2023/07/12 13:50:38;;;;;;;4.40;1.10;;;;;;;;;;4883578;29;20039;-80
2023/07/12 13:53:04;;;;;;;3.17;0.90;;;;;;;;;;4886068;29;20134;-80
2023/07/12 13:55:30;;;;;;;2.10;0.77;;;;;;;;;;4887542;29;20044;-80
2023/07/12 13:57:56;;;;;;;4.15;0.90;;;;;;;;;;4886581;29;20445;-80
2023/07/12 14:00:22;;;;;;;2.25;0.82;;;;;;;;;;4869216;29;20040;-80
2023/07/12 14:02:52;;;;;;;3.88;0.95;;;;;;;;;;4884693;29;20619;-80
2023/07/12 14:05:19;;;;;;;4.30;1.10;;;;;;;;;;4889347;29;20071;-80
2023/07/12 14:07:45;;;;;;;2.28;0.80;;;;;;;;;;4891269;29;20386;-80
2023/07/12 14:10:20;;;;;;;4.43;0.77;;;;;;;;;;4881259;29;20636;-80
2023/07/12 14:12:47;;;;;;;4.40;0.98;;;;;;;;;;4871695;29;20139;-80
2023/07/12 14:15:16;;;;;;;3.10;0.77;;;;;;;;;;4890002;29;20520;-81
2023/07/12 14:17:43;;;;;;;4.43;0.70;;;;;;;;;;4900998;29;20063;-80
2023/07/12 14:20:09;;;;;;;1.95;0.70;;;;;;;;;;4871749;29;20134;-80
2023/07/12 14:22:36;;;;;;;3.28;0.95;;;;;;;;;;4890576;29;20044;-80
2023/07/12 14:25:03;;;;;;;2.30;0.90;;;;;;;;;;4889638;29;20075;-80
2023/07/12 14:27:30;;;;;;;3.17;0.70;;;;;;;;;;4888619;29;20048;-80
2023/07/12 14:29:57;;;;;;;2.88;0.90;;;;;;;;;;4886105;29;20189;-80
2023/07/12 14:32:23;;;;;;;3.72;0.80;;;;;;;;;;4885931;29;20063;-81
2023/07/12 14:34:49;;;;;;;2.08;0.80;;;;;;;;;;4884505;29;20112;-81
2023/07/12 14:37:16;;;;;;;3.05;0.98;;;;;;;;;;4885764;29;20053;-81
2023/07/12 14:39:43;;;;;;;2.63;0.70;;;;;;;;;;4884106;29;20056;-81
2023/07/12 14:42:24;;;;;;;2.72;0.90;;;;;;;;;;4885361;29;20056;-81